General WM J Fox Airfield
KWJF : now visible

Airfield :











YOU CAN JOIN US ON...

 
LOGIN :

Register | Disclaimer

   EN    FR    IT 

 









Legend :    VFR   Marginal VFR   IFR   Intensive IFR   Very Intensive IFR
Visi :
Ceiling :
>= 8 km
>= 3000ft
5 to 8 km
1000 to 3000 ft
1500m to 5 km
500 to 1000 ft
800 to 1500m
200 to 500 ft
< 800m
< 200 ft
Symbols :   Thunderstorms  Fog  Heavy snow  Heavy precipitations  Wind > 20 kt






- Airport Elevation : 2351 ft


KWJF - General WM J Fox

CURRENT METAR :
  • 172156Z 23019KT 10SM CLR 42/06 A2980 RMK AO2 PK WND 26026/2140 WSHFT 2053 SLP062 T04220061

EXPIRED METARs :
  • 172113Z 25020G25KT 10SM CLR 43/08 A2982 RMK AO2 WSHFT 2053 T04280078
  • 172056Z 23017G23KT 10SM CLR 44/05 A2981 RMK AO2 SLP064 60000 T04390050 57026
  • 171956Z VRB03KT 10SM CLR 41/04 A2984 RMK AO2 SLP073 T04110039

TAF KWJF
Valid from the 17 at 18:00 until the 18 at 18:00 UTC


171721Z 1718/1818 VRB03KT P6SM SCT200
FM172000 24014G20KT P6SM SCT200
FM180300 24012KT P6SM SCT200
FM180800 VRB03KT P6SM SCT200
KZLA FIR / North America



MET'MAP, your aeronautical weather chart ! - Copyright ORBIFLY December 2007 - Disclaimer

ORBIFLY MET'MAP TEAM :

Programming & Development : Alexandra Zaïnal
Concept & original design : Baudouin d'Aumeries
Assistance for programming : Marc-Olivier Méhu
Technical & hardware support : Manuel Goepfert

Contact : metmap@orbifly.com




SOURCES & CREDITS :

   NOAA       Earth
Advisory